Etusivu
METAR-TAF:

METAR-TAF

Lentoasemat :

Halmstad, Ruotsi

Leveyspiiri: 56-41N, Pituuspiiri: 012-50E, korkeus merenpinnasta: 30 m

Tämänhetkinen sää

Tämä raportti tehtiin 10 minuuttia sitten, kello 00.50 UTC
tyyntä
Lämpötila 14°C
Kosteus 88%
Ilmanpaine 1011 hPa
Näkyvyys: 8000 m

METAR: ESMT 220050Z AUTO 00000KT 8000 NCD 14/12 Q1011

Aika: 03:00 (01:00 UTC)

Sääennuste

Tämä raportti tehtiin 13 tuntia ja 59 minuuttia sitten, kello 11.01 UTC
Ennuste voimassa 21. päivästä klo 12 UTC - 21. päivään klo 15 UTC
Tuuli 10 kn lännestä
Näkyvyys 10 km tai enemmän
ei pilviä alle 1500 m:ssä eikä cumulonimbus-pilviä

TAF: ESMT 211101Z 2112/2115 28010KT CAVOK

Säähavainnot ja -ennusteet yli 4000 lentoasemalta (METAR- ja TAF-raportit).

Käytössä olevat sääasemat on merkitty karttaan keltaisilla ja punaisilla pisteillä.

Aseta hiiri pisteen päälle nähdäksesi sääaseman nimen.

Klikkaa sitten nähdäksesi säähavainnot ja -ennusteet.

Kartan vaihtaminen: klikkaa mustalla rastilla varustettuja vihreitä pisteitä, niin voit zoomata sisään; viivalla varustettua vihreää pistettä, niin voit zoomata ulos tai vihreitä nuolia, niin pääset viereisille kartoille.


METAR-TAF: